Wetterdaten: Sonntag, 19.01.2014
Datum Zeit Temperatur Luftfeuchte Luftdruck Regen Wind Richtung Richtung Taupunkt Windchill Windben
19.01.2014 00:00 0,9 C 97 % 1001,8 hPa 0,0 l/m 1,6 km/h (1 Bft) N 360 0,5 C 1,2 C 3,9 km/h (1 Bft)
19.01.2014 00:05 0,7 C 97 % 1001,8 hPa 0,0 l/m 1,6 km/h (1 Bft) O 90 0,3 C 1,0 C 3,9 km/h (1 Bft)
19.01.2014 00:10 1,0 C 97 % 1001,8 hPa 0,0 l/m 1,0 km/h (0 Bft) W-NW 292 0,6 C 1,0 C 4,3 km/h (1 Bft)
19.01.2014 00:15 1,0 C 97 % 1001,8 hPa 0,0 l/m 1,9 km/h (1 Bft) NO 45 0,6 C 1,0 C 2,7 km/h (1 Bft)
19.01.2014 00:20 1,8 C 97 % 1001,8 hPa 0,0 l/m 2,4 km/h (1 Bft) N-NO 22 1,4 C 1,7 C 6,4 km/h (2 Bft)
19.01.2014 00:25 2,0 C 97 % 1001,7 hPa 0,0 l/m 1,9 km/h (1 Bft) W-SW 247 1,6 C 2,2 C 4,0 km/h (1 Bft)
19.01.2014 00:30 1,0 C 97 % 1001,7 hPa 0,0 l/m 2,4 km/h (1 Bft) S-SW 202 0,6 C 1,8 C 0,0 km/h (0 Bft)
19.01.2014 00:35 0,7 C 97 % 1001,7 hPa 0,0 l/m 2,6 km/h (1 Bft) S-SO 157 0,3 C 1,4 C 2,9 km/h (1 Bft)
19.01.2014 00:40 0,4 C 97 % 1001,7 hPa 0,0 l/m 1,8 km/h (1 Bft) S-SW 202 -0,0 C 1,1 C 0,0 km/h (0 Bft)
19.01.2014 00:45 0,3 C 97 % 1001,8 hPa 0,0 l/m 1,3 km/h (1 Bft) S-SO 157 -0,1 C 0,8 C 0,0 km/h (0 Bft)
19.01.2014 00:50 0,1 C 97 % 1001,8 hPa 0,0 l/m 0,2 km/h (0 Bft) O-SO 112 -0,3 C 0,4 C 3,4 km/h (1 Bft)
19.01.2014 00:55 0,4 C 97 % 1001,8 hPa 0,0 l/m 0,8 km/h (0 Bft) N 360 -0,0 C 0,3 C 1,9 km/h (1 Bft)
19.01.2014 01:00 0,6 C 97 % 1001,8 hPa 0,0 l/m 1,1 km/h (1 Bft) O 90 0,2 C 0,5 C 2,3 km/h (1 Bft)
19.01.2014 01:05 0,7 C 97 % 1001,7 hPa 0,0 l/m 0,3 km/h (0 Bft) N-NO 22 0,3 C 0,7 C 0,0 km/h (0 Bft)
19.01.2014 01:10 0,2 C 97 % 1001,7 hPa 0,0 l/m 0,8 km/h (0 Bft) W-SW 247 -0,2 C 0,7 C 2,4 km/h (1 Bft)
19.01.2014 01:15 0,3 C 97 % 1001,7 hPa 0,0 l/m 1,4 km/h (1 Bft) SO 135 -0,1 C 0,5 C 3,9 km/h (1 Bft)
19.01.2014 01:20 0,6 C 97 % 1001,7 hPa 0,0 l/m 2,1 km/h (1 Bft) N-NW 337 0,2 C 0,5 C 4,5 km/h (1 Bft)
19.01.2014 01:25 0,9 C 97 % 1001,7 hPa 0,0 l/m 2,4 km/h (1 Bft) NO 45 0,5 C 0,6 C 0,0 km/h (0 Bft)
19.01.2014 01:30 1,0 C 97 % 1001,7 hPa 0,0 l/m 1,8 km/h (1 Bft) W 270 0,6 C 1,0 C 1,9 km/h (1 Bft)
19.01.2014 01:35 0,8 C 97 % 1001,7 hPa 0,0 l/m 0,8 km/h (0 Bft) S-SW 202 0,4 C 1,0 C 1,9 km/h (1 Bft)
19.01.2014 01:40 0,4 C 97 % 1001,7 hPa 0,0 l/m 0,8 km/h (0 Bft) N-NO 22 -0,0 C 0,9 C 1,9 km/h (1 Bft)
19.01.2014 01:45 0,2 C 96 % 1001,6 hPa 0,0 l/m 1,1 km/h (1 Bft) W-NW 292 -0,4 C 0,7 C 2,1 km/h (1 Bft)
19.01.2014 01:50 0,1 C 96 % 1001,6 hPa 0,0 l/m 0,6 km/h (0 Bft) S-SW 202 -0,5 C 0,4 C 0,0 km/h (0 Bft)
19.01.2014 01:55 0,3 C 96 % 1001,6 hPa 0,0 l/m 0,8 km/h (0 Bft) N-NO 22 -0,3 C 0,3 C 3,2 km/h (1 Bft)
19.01.2014 02:00 0,4 C 97 % 1001,6 hPa 0,0 l/m 0,6 km/h (0 Bft) N-NW 337 -0,0 C 0,4 C 0,0 km/h (0 Bft)
19.01.2014 02:05 1,0 C 96 % 1001,6 hPa 0,0 l/m 2,6 km/h (1 Bft) O 90 0,4 C 0,6 C 5,5 km/h (1 Bft)
19.01.2014 02:10 3,0 C 96 % 1001,6 hPa 0,0 l/m 4,2 km/h (1 Bft) W 270 2,4 C 1,1 C 8,4 km/h (2 Bft)
19.01.2014 02:15 1,6 C 96 % 1001,6 hPa 0,0 l/m 3,7 km/h (1 Bft) O 90 1,0 C 1,4 C 4,2 km/h (1 Bft)
19.01.2014 02:20 2,3 C 96 % 1001,6 hPa 0,0 l/m 3,9 km/h (1 Bft) NO 45 1,7 C 1,3 C 7,4 km/h (2 Bft)
19.01.2014 02:23 4,2 C 95 % 1001,6 hPa 0,0 l/m 4,8 km/h (1 Bft) O-NO 67 3,5 C 1,6 C 6,1 km/h (2 Bft)
19.01.2014 02:25 4,2 C 95 % 1001,6 hPa 0,0 l/m 4,8 km/h (1 Bft) O-NO 67 3,5 C 1,6 C 6,1 km/h (2 Bft)
19.01.2014 02:30 4,4 C 94 % 1001,6 hPa 0,0 l/m 4,5 km/h (1 Bft) SO 135 3,5 C 2,7 C 1,9 km/h (1 Bft)
19.01.2014 02:35 2,5 C 94 % 1001,6 hPa 0,0 l/m 2,4 km/h (1 Bft) N-NO 22 1,6 C 3,5 C 0,0 km/h (0 Bft)
19.01.2014 02:40 2,5 C 94 % 1001,6 hPa 0,0 l/m 1,1 km/h (1 Bft) S-SW 202 1,6 C 3,3 C 0,0 km/h (0 Bft)
19.01.2014 02:45 1,5 C 94 % 1001,6 hPa 0,0 l/m 1,3 km/h (1 Bft) S 180 0,6 C 2,8 C 0,0 km/h (0 Bft)
19.01.2014 02:50 1,6 C 93 % 1001,6 hPa 0,0 l/m 0,8 km/h (0 Bft) NO 45 0,6 C 2,1 C 6,1 km/h (2 Bft)
19.01.2014 02:55 4,3 C 91 % 1001,6 hPa 0,0 l/m 2,7 km/h (1 Bft) NO 45 3,0 C 2,6 C 6,9 km/h (2 Bft)
19.01.2014 03:00 4,7 C 88 % 1001,6 hPa 0,0 l/m 5,0 km/h (1 Bft) W-SW 247 2,9 C 3,2 C 8,9 km/h (2 Bft)
19.01.2014 03:05 2,6 C 87 % 1001,5 hPa 0,0 l/m 3,5 km/h (1 Bft) S 180 0,7 C 3,6 C 0,0 km/h (0 Bft)
19.01.2014 03:10 2,4 C 87 % 1001,5 hPa 0,0 l/m 1,6 km/h (1 Bft) NO 45 0,5 C 3,0 C 1,6 km/h (1 Bft)
19.01.2014 03:15 2,4 C 87 % 1001,5 hPa 0,0 l/m 0,8 km/h (0 Bft) S 180 0,5 C 2,8 C 0,0 km/h (0 Bft)
19.01.2014 03:20 3,7 C 87 % 1001,5 hPa 0,0 l/m 1,8 km/h (1 Bft) O 90 1,7 C 2,9 C 5,3 km/h (1 Bft)
19.01.2014 03:25 4,6 C 85 % 1001,7 hPa 0,0 l/m 2,9 km/h (1 Bft) O-NO 67 2,3 C 3,6 C 4,2 km/h (1 Bft)
19.01.2014 03:30 2,8 C 82 % 1001,7 hPa 0,0 l/m 2,7 km/h (1 Bft) N-NO 22 0,0 C 3,8 C 0,0 km/h (0 Bft)
19.01.2014 03:35 2,2 C 83 % 1001,7 hPa 0,0 l/m 1,4 km/h (1 Bft) O-NO 67 -0,4 C 3,3 C 2,9 km/h (1 Bft)
19.01.2014 03:40 4,6 C 82 % 1001,7 hPa 0,0 l/m 3,5 km/h (1 Bft) NO 45 1,8 C 3,5 C 7,6 km/h (2 Bft)
19.01.2014 03:45 4,6 C 79 % 1001,7 hPa 0,0 l/m 4,7 km/h (1 Bft) N-NW 337 1,3 C 3,5 C 2,6 km/h (1 Bft)
19.01.2014 03:50 3,1 C 81 % 1001,7 hPa 0,0 l/m 2,3 km/h (1 Bft) NW 315 0,2 C 4,1 C 0,0 km/h (0 Bft)
19.01.2014 03:55 2,9 C 83 % 1001,7 hPa 0,0 l/m 1,0 km/h (0 Bft) S-SO 157 0,3 C 3,9 C 6,8 km/h (2 Bft)
19.01.2014 04:00 3,9 C 81 % 1001,7 hPa 0,0 l/m 1,9 km/h (1 Bft) NO 45 0,9 C 3,8 C 3,9 km/h (1 Bft)
19.01.2014 04:05 4,1 C 81 % 1001,6 hPa 0,0 l/m 2,4 km/h (1 Bft) NO 45 1,1 C 3,9 C 3,4 km/h (1 Bft)
19.01.2014 04:10 2,9 C 83 % 1001,6 hPa 0,0 l/m 1,6 km/h (1 Bft) S 180 0,3 C 4,0 C 0,0 km/h (0 Bft)
19.01.2014 04:15 2,6 C 83 % 1001,6 hPa 0,0 l/m 1,3 km/h (1 Bft) S 180 0,0 C 3,9 C 0,0 km/h (0 Bft)
19.01.2014 04:20 2,3 C 84 % 1001,6 hPa 0,0 l/m 0,0 km/h (0 Bft) O 90 -0,1 C 3,3 C 0,0 km/h (0 Bft)
19.01.2014 04:25 2,1 C 85 % 1001,5 hPa 0,0 l/m 0,0 km/h (0 Bft) O 90 -0,2 C 3,1 C 0,0 km/h (0 Bft)
19.01.2014 04:30 2,3 C 86 % 1001,5 hPa 0,0 l/m 0,2 km/h (0 Bft) O 90 0,2 C 3,0 C 1,6 km/h (1 Bft)
19.01.2014 04:35 2,3 C 86 % 1001,5 hPa 0,0 l/m 0,6 km/h (0 Bft) S 180 0,2 C 3,0 C 3,5 km/h (1 Bft)
19.01.2014 04:40 2,2 C 86 % 1001,5 hPa 0,0 l/m 1,6 km/h (1 Bft) S-SO 157 0,1 C 2,7 C 3,7 km/h (1 Bft)
19.01.2014 04:45 2,3 C 87 % 1001,5 hPa 0,0 l/m 1,6 km/h (1 Bft) NO 45 0,4 C 2,6 C 2,4 km/h (1 Bft)
19.01.2014 04:50 2,8 C 86 % 1001,5 hPa 0,0 l/m 1,6 km/h (1 Bft) N 360 0,7 C 2,9 C 0,0 km/h (0 Bft)
19.01.2014 04:55 2,6 C 87 % 1001,5 hPa 0,0 l/m 1,1 km/h (1 Bft) SW 225 0,7 C 3,1 C 1,9 km/h (1 Bft)
19.01.2014 05:00 2,7 C 87 % 1001,5 hPa 0,0 l/m 1,6 km/h (1 Bft) O 90 0,8 C 3,1 C 4,0 km/h (1 Bft)
19.01.2014 05:05 4,2 C 85 % 1001,4 hPa 0,0 l/m 1,9 km/h (1 Bft) NO 45 1,9 C 3,4 C 0,0 km/h (0 Bft)
19.01.2014 05:10 5,1 C 81 % 1001,4 hPa 0,0 l/m 1,6 km/h (1 Bft) S-SO 157 2,1 C 4,0 C 1,9 km/h (1 Bft)
19.01.2014 05:15 3,6 C 78 % 1001,4 hPa 0,0 l/m 1,8 km/h (1 Bft) SO 135 0,1 C 4,2 C 1,9 km/h (1 Bft)
19.01.2014 05:20 2,5 C 80 % 1001,4 hPa 0,0 l/m 1,3 km/h (1 Bft) O-SO 112 -0,6 C 3,7 C 2,4 km/h (1 Bft)
19.01.2014 05:25 3,4 C 81 % 1001,4 hPa 0,0 l/m 1,6 km/h (1 Bft) NO 45 0,5 C 3,3 C 0,0 km/h (0 Bft)
19.01.2014 05:30 4,2 C 79 % 1001,4 hPa 0,0 l/m 1,8 km/h (1 Bft) SO 135 0,9 C 3,7 C 0,0 km/h (0 Bft)
19.01.2014 05:35 3,0 C 79 % 1001,4 hPa 0,0 l/m 1,1 km/h (1 Bft) S 180 -0,3 C 3,6 C 4,8 km/h (1 Bft)
19.01.2014 05:40 2,9 C 80 % 1001,4 hPa 0,0 l/m 1,6 km/h (1 Bft) N-NO 22 -0,2 C 3,3 C 2,9 km/h (1 Bft)
19.01.2014 05:45 3,1 C 80 % 1001,2 hPa 0,0 l/m 1,8 km/h (1 Bft) O-SO 112 -0,0 C 3,4 C 2,9 km/h (1 Bft)
19.01.2014 05:50 3,2 C 81 % 1001,2 hPa 0,0 l/m 1,8 km/h (1 Bft) NO 45 0,3 C 3,7 C 4,5 km/h (1 Bft)
19.01.2014 05:55 3,8 C 80 % 1001,2 hPa 0,0 l/m 1,9 km/h (1 Bft) NO 45 0,7 C 4,2 C 5,0 km/h (1 Bft)
19.01.2014 06:00 5,0 C 77 % 1001,2 hPa 0,0 l/m 2,1 km/h (1 Bft) NO 45 1,3 C 5,0 C 2,9 km/h (1 Bft)
19.01.2014 06:05 6,5 C 69 % 1001,6 hPa 0,0 l/m 3,4 km/h (1 Bft) NO 45 1,2 C 5,1 C 6,4 km/h (2 Bft)
19.01.2014 06:10 6,5 C 62 % 1001,6 hPa 0,0 l/m 5,0 km/h (1 Bft) S 180 -0,2 C 5,1 C 6,4 km/h (2 Bft)
19.01.2014 06:15 4,2 C 67 % 1001,6 hPa 0,0 l/m 5,1 km/h (1 Bft) W-SW 247 -1,4 C 4,7 C 0,0 km/h (0 Bft)
19.01.2014 06:20 4,3 C 72 % 1001,6 hPa 0,0 l/m 3,9 km/h (1 Bft) NO 45 -0,3 C 4,3 C 5,5 km/h (1 Bft)
19.01.2014 06:25 4,4 C 72 % 1000,6 hPa 0,0 l/m 3,1 km/h (1 Bft) W-SW 247 -0,2 C 4,9 C 7,1 km/h (2 Bft)
19.01.2014 06:30 4,3 C 73 % 1000,6 hPa 0,0 l/m 4,2 km/h (1 Bft) NO 45 -0,1 C 3,7 C 7,4 km/h (2 Bft)
19.01.2014 06:35 5,9 C 69 % 1000,6 hPa 0,0 l/m 5,3 km/h (1 Bft) O 90 0,7 C 3,5 C 7,7 km/h (2 Bft)
19.01.2014 06:40 6,5 C 63 % 1000,6 hPa 0,0 l/m 6,1 km/h (2 Bft) O 90 -0,0 C 4,1 C 5,6 km/h (1 Bft)
19.01.2014 06:45 5,1 C 65 % 1000,3 hPa 0,0 l/m 4,7 km/h (1 Bft) W-SW 247 -0,9 C 4,8 C 0,0 km/h (0 Bft)
19.01.2014 06:50 3,5 C 70 % 1000,3 hPa 0,0 l/m 1,3 km/h (1 Bft) W-SW 247 -1,4 C 4,8 C 0,0 km/h (0 Bft)
19.01.2014 06:55 3,4 C 73 % 1000,3 hPa 0,0 l/m 1,0 km/h (0 Bft) O-NO 67 -1,0 C 4,2 C 6,1 km/h (2 Bft)
19.01.2014 07:00 4,0 C 74 % 1000,3 hPa 0,0 l/m 2,1 km/h (1 Bft) O-SO 112 -0,2 C 4,0 C 0,0 km/h (0 Bft)
19.01.2014 07:05 4,5 C 73 % 1000,4 hPa 0,0 l/m 1,9 km/h (1 Bft) SO 135 0,1 C 4,1 C 0,0 km/h (0 Bft)
19.01.2014 07:10 3,5 C 73 % 1000,4 hPa 0,0 l/m 0,3 km/h (0 Bft) SO 135 -0,9 C 4,2 C 0,0 km/h (0 Bft)
19.01.2014 07:15 3,8 C 74 % 1000,4 hPa 0,0 l/m 1,1 km/h (1 Bft) NO 45 -0,4 C 3,9 C 4,8 km/h (1 Bft)
19.01.2014 07:20 5,1 C 71 % 1000,4 hPa 0,0 l/m 3,7 km/h (1 Bft) NO 45 0,3 C 4,0 C 3,5 km/h (1 Bft)
19.01.2014 07:25 5,4 C 70 % 1000,4 hPa 0,0 l/m 4,3 km/h (1 Bft) O 90 0,4 C 4,1 C 4,0 km/h (1 Bft)
19.01.2014 07:30 3,3 C 70 % 1000,4 hPa 0,0 l/m 2,6 km/h (1 Bft) S-SW 202 -1,6 C 4,8 C 2,4 km/h (1 Bft)
19.01.2014 07:35 2,9 C 74 % 1000,4 hPa 0,0 l/m 1,3 km/h (1 Bft) SO 135 -1,3 C 4,0 C 0,0 km/h (0 Bft)
19.01.2014 07:40 2,9 C 76 % 1000,4 hPa 0,0 l/m 1,4 km/h (1 Bft) N 360 -0,9 C 3,4 C 3,2 km/h (1 Bft)
19.01.2014 07:45 3,6 C 76 % 1000,7 hPa 0,0 l/m 2,6 km/h (1 Bft) NO 45 -0,2 C 3,4 C 1,8 km/h (1 Bft)
19.01.2014 07:50 3,6 C 76 % 1000,7 hPa 0,0 l/m 3,2 km/h (1 Bft) O-SO 112 -0,2 C 3,5 C 1,9 km/h (1 Bft)
19.01.2014 07:55 3,1 C 75 % 1000,7 hPa 0,0 l/m 2,3 km/h (1 Bft) S 180 -0,9 C 3,7 C 2,6 km/h (1 Bft)
19.01.2014 08:00 2,0 C 77 % 1000,7 hPa 0,0 l/m 1,0 km/h (0 Bft) N 360 -1,6 C 3,2 C 0,0 km/h (0 Bft)
19.01.2014 08:05 2,4 C 78 % 1000,8 hPa 0,0 l/m 1,1 km/h (1 Bft) SO 135 -1,0 C 2,8 C 0,0 km/h (0 Bft)
19.01.2014 08:10 2,2 C 78 % 1000,8 hPa 0,0 l/m 1,4 km/h (1 Bft) SO 135 -1,2 C 2,6 C 5,8 km/h (2 Bft)
19.01.2014 08:15 4,7 C 76 % 1000,8 hPa 0,0 l/m 2,6 km/h (1 Bft) O 90 0,8 C 2,9 C 6,9 km/h (2 Bft)
19.01.2014 08:18 6,2 C 66 % 1000,8 hPa 0,0 l/m 5,8 km/h (2 Bft) NO 45 0,3 C 3,4 C 6,4 km/h (2 Bft)
19.01.2014 08:20 6,2 C 66 % 1000,8 hPa 0,0 l/m 5,8 km/h (2 Bft) NO 45 0,3 C 3,4 C 6,4 km/h (2 Bft)
19.01.2014 08:25 6,6 C 63 % 1001,1 hPa 0,0 l/m 6,4 km/h (2 Bft) NO 45 0,1 C 4,3 C 7,2 km/h (2 Bft)
19.01.2014 08:30 6,5 C 61 % 1001,1 hPa 0,0 l/m 5,0 km/h (1 Bft) O 90 -0,5 C 5,8 C 4,0 km/h (1 Bft)
19.01.2014 08:35 6,5 C 60 % 1001,1 hPa 0,0 l/m 3,9 km/h (1 Bft) NO 45 -0,7 C 6,4 C 4,3 km/h (1 Bft)
19.01.2014 08:40 5,9 C 64 % 1001,1 hPa 0,0 l/m 3,2 km/h (1 Bft) NO 45 -0,4 C 6,5 C 3,5 km/h (1 Bft)
19.01.2014 08:45 5,6 C 65 % 1001,0 hPa 0,0 l/m 2,4 km/h (1 Bft) W-SW 247 -0,4 C 6,5 C 4,5 km/h (1 Bft)
19.01.2014 08:50 5,0 C 66 % 1001,0 hPa 0,0 l/m 3,5 km/h (1 Bft) S-SO 157 -0,8 C 6,5 C 5,8 km/h (2 Bft)
19.01.2014 08:55 4,9 C 67 % 1001,0 hPa 0,0 l/m 3,7 km/h (1 Bft) N 360 -0,7 C 6,0 C 0,0 km/h (0 Bft)
19.01.2014 09:00 5,2 C 67 % 1001,0 hPa 0,0 l/m 2,1 km/h (1 Bft) NO 45 -0,4 C 5,8 C 3,9 km/h (1 Bft)
19.01.2014 09:05 5,7 C 66 % 1001,4 hPa 0,0 l/m 2,7 km/h (1 Bft) NO 45 -0,1 C 5,9 C 5,1 km/h (1 Bft)
19.01.2014 09:10 5,6 C 66 % 1001,4 hPa 0,0 l/m 3,4 km/h (1 Bft) O-NO 67 -0,2 C 6,1 C 2,9 km/h (1 Bft)
19.01.2014 09:15 5,7 C 67 % 1001,4 hPa 0,0 l/m 1,9 km/h (1 Bft) NO 45 0,1 C 6,2 C 3,4 km/h (1 Bft)
19.01.2014 09:20 5,9 C 68 % 1001,4 hPa 0,0 l/m 1,1 km/h (1 Bft) N-NO 22 0,5 C 6,6 C 0,0 km/h (0 Bft)
19.01.2014 09:25 5,8 C 68 % 1001,4 hPa 0,0 l/m 1,0 km/h (0 Bft) S-SW 202 0,4 C 6,8 C 0,0 km/h (0 Bft)
19.01.2014 09:30 5,3 C 68 % 1001,4 hPa 0,0 l/m 0,3 km/h (0 Bft) N-NW 337 -0,1 C 6,8 C 0,0 km/h (0 Bft)
19.01.2014 09:35 5,0 C 68 % 1001,4 hPa 0,0 l/m 0,5 km/h (0 Bft) S 180 -0,4 C 6,4 C 2,1 km/h (1 Bft)
19.01.2014 09:40 5,0 C 68 % 1001,4 hPa 0,0 l/m 0,8 km/h (0 Bft) S 180 -0,4 C 6,0 C 3,2 km/h (1 Bft)
19.01.2014 09:45 5,1 C 69 % 1001,6 hPa 0,0 l/m 1,3 km/h (1 Bft) O-SO 112 -0,1 C 6,0 C 0,0 km/h (0 Bft)
19.01.2014 09:50 5,5 C 68 % 1001,6 hPa 0,0 l/m 1,4 km/h (1 Bft) N-NW 337 0,1 C 6,0 C 1,6 km/h (1 Bft)
19.01.2014 09:55 5,2 C 69 % 1001,6 hPa 0,0 l/m 1,3 km/h (1 Bft) NO 45 -0,0 C 6,0 C 1,6 km/h (1 Bft)
19.01.2014 10:00 5,3 C 69 % 1001,6 hPa 0,0 l/m 1,4 km/h (1 Bft) S 180 0,1 C 6,2 C 0,0 km/h (0 Bft)
19.01.2014 10:05 5,2 C 70 % 1001,8 hPa 0,0 l/m 0,8 km/h (0 Bft) NO 45 0,2 C 6,3 C 0,0 km/h (0 Bft)
19.01.2014 10:10 5,2 C 71 % 1001,8 hPa 0,0 l/m 0,0 km/h (0 Bft) NO 45 0,4 C 6,2 C 0,0 km/h (0 Bft)
19.01.2014 10:15 5,0 C 71 % 1001,8 hPa 0,0 l/m 0,2 km/h (0 Bft) N-NW 337 0,2 C 6,2 C 0,0 km/h (0 Bft)
19.01.2014 10:20 4,9 C 72 % 1001,8 hPa 0,0 l/m 0,0 km/h (0 Bft) W 270 0,3 C 6,0 C 0,0 km/h (0 Bft)
19.01.2014 10:25 4,7 C 72 % 1001,8 hPa 0,0 l/m 0,0 km/h (0 Bft) N 360 0,1 C 5,9 C 0,0 km/h (0 Bft)
19.01.2014 10:30 4,9 C 73 % 1001,8 hPa 0,0 l/m 0,2 km/h (0 Bft) N 360 0,5 C 5,9 C 0,0 km/h (0 Bft)
19.01.2014 10:35 4,8 C 73 % 1001,8 hPa 0,0 l/m 0,2 km/h (0 Bft) N 360 0,4 C 5,9 C 0,0 km/h (0 Bft)
19.01.2014 10:40 5,4 C 73 % 1001,8 hPa 0,0 l/m 1,4 km/h (1 Bft) O 90 1,0 C 5,9 C 3,9 km/h (1 Bft)
19.01.2014 10:45 5,9 C 71 % 1002,0 hPa 0,0 l/m 2,7 km/h (1 Bft) O-NO 67 1,1 C 6,2 C 0,0 km/h (0 Bft)
19.01.2014 10:50 5,4 C 70 % 1002,0 hPa 0,0 l/m 1,9 km/h (1 Bft) W-SW 247 0,4 C 6,5 C 2,9 km/h (1 Bft)
19.01.2014 10:55 5,0 C 71 % 1002,0 hPa 0,0 l/m 1,1 km/h (1 Bft) S 180 0,2 C 6,2 C 0,0 km/h (0 Bft)
19.01.2014 11:00 4,9 C 72 % 1002,0 hPa 0,0 l/m 0,8 km/h (0 Bft) NO 45 0,3 C 6,0 C 0,0 km/h (0 Bft)
19.01.2014 11:05 5,1 C 73 % 1001,9 hPa 0,0 l/m 0,0 km/h (0 Bft) O-SO 112 0,7 C 6,1 C 0,0 km/h (0 Bft)
19.01.2014 11:10 5,1 C 73 % 1001,9 hPa 0,0 l/m 0,0 km/h (0 Bft) O-NO 67 0,7 C 6,2 C 0,0 km/h (0 Bft)
19.01.2014 11:15 5,1 C 73 % 1001,9 hPa 0,0 l/m 0,0 km/h (0 Bft) O-SO 112 0,7 C 6,2 C 0,0 km/h (0 Bft)
19.01.2014 11:20 5,5 C 73 % 1001,9 hPa 0,0 l/m 0,0 km/h (0 Bft) O-SO 112 1,1 C 6,2 C 0,0 km/h (0 Bft)
19.01.2014 11:25 5,6 C 72 % 1001,8 hPa 0,0 l/m 0,0 km/h (0 Bft) S 180 1,0 C 6,4 C 0,0 km/h (0 Bft)
19.01.2014 11:30 5,7 C 72 % 1001,8 hPa 0,0 l/m 0,0 km/h (0 Bft) SO 135 1,1 C 6,7 C 0,0 km/h (0 Bft)
19.01.2014 11:35 6,1 C 70 % 1001,8 hPa 0,0 l/m 0,6 km/h (0 Bft) NO 45 1,0 C 6,8 C 3,2 km/h (1 Bft)
19.01.2014 11:40 7,0 C 67 % 1001,8 hPa 0,0 l/m 1,9 km/h (1 Bft) NO 45 1,3 C 7,3 C 2,4 km/h (1 Bft)
19.01.2014 11:45 7,0 C 66 % 1001,8 hPa 0,0 l/m 2,3 km/h (1 Bft) N-NO 22 1,1 C 7,6 C 0,0 km/h (0 Bft)
19.01.2014 11:50 6,5 C 68 % 1001,8 hPa 0,0 l/m 0,6 km/h (0 Bft) O 90 1,0 C 7,8 C 0,0 km/h (0 Bft)
19.01.2014 11:55 6,0 C 69 % 1001,8 hPa 0,0 l/m 0,8 km/h (0 Bft) S-SW 202 0,8 C 7,6 C 1,9 km/h (1 Bft)
19.01.2014 12:00 5,7 C 71 % 1001,8 hPa 0,0 l/m 0,8 km/h (0 Bft) SO 135 0,9 C 7,2 C 0,0 km/h (0 Bft)
19.01.2014 12:05 6,2 C 70 % 1001,8 hPa 0,0 l/m 1,3 km/h (1 Bft) SO 135 1,1 C 7,1 C 3,7 km/h (1 Bft)
19.01.2014 12:10 6,8 C 67 % 1001,8 hPa 0,0 l/m 2,1 km/h (1 Bft) S-SO 157 1,1 C 7,4 C 2,4 km/h (1 Bft)
19.01.2014 12:15 6,8 C 68 % 1001,8 hPa 0,0 l/m 1,4 km/h (1 Bft) S 180 1,3 C 7,6 C 0,0 km/h (0 Bft)
19.01.2014 12:20 7,0 C 65 % 1001,8 hPa 0,0 l/m 0,5 km/h (0 Bft) N-NO 22 0,9 C 7,8 C 0,0 km/h (0 Bft)
19.01.2014 12:25 6,8 C 67 % 1001,5 hPa 0,0 l/m 0,2 km/h (0 Bft) N-NO 22 1,1 C 7,9 C 0,0 km/h (0 Bft)
19.01.2014 12:30 6,6 C 68 % 1001,5 hPa 0,0 l/m 1,0 km/h (0 Bft) S 180 1,1 C 7,9 C 2,6 km/h (1 Bft)
19.01.2014 12:35 6,3 C 69 % 1001,5 hPa 0,0 l/m 1,1 km/h (1 Bft) SO 135 1,0 C 7,8 C 0,0 km/h (0 Bft)
19.01.2014 12:40 6,3 C 69 % 1001,5 hPa 0,0 l/m 0,6 km/h (0 Bft) SO 135 1,0 C 7,7 C 0,0 km/h (0 Bft)
19.01.2014 12:45 6,4 C 70 % 1001,5 hPa 0,0 l/m 0,0 km/h (0 Bft) S-SW 202 1,3 C 7,7 C 0,0 km/h (0 Bft)
19.01.2014 12:50 6,2 C 70 % 1001,5 hPa 0,0 l/m 0,0 km/h (0 Bft) N-NW 337 1,1 C 7,7 C 0,0 km/h (0 Bft)
19.01.2014 12:55 6,2 C 70 % 1001,5 hPa 0,0 l/m 0,0 km/h (0 Bft) N-NO 22 1,1 C 7,6 C 0,0 km/h (0 Bft)
19.01.2014 13:00 6,7 C 70 % 1001,5 hPa 0,0 l/m 0,5 km/h (0 Bft) O-SO 112 1,6 C 7,5 C 0,0 km/h (0 Bft)
19.01.2014 13:05 6,5 C 70 % 1001,2 hPa 0,0 l/m 0,5 km/h (0 Bft) O-SO 112 1,4 C 7,6 C 0,0 km/h (0 Bft)
19.01.2014 13:10 6,4 C 70 % 1001,2 hPa 0,0 l/m 0,0 km/h (0 Bft) O-SO 112 1,3 C 7,7 C 0,0 km/h (0 Bft)
19.01.2014 13:15 6,5 C 70 % 1001,2 hPa 0,0 l/m 0,0 km/h (0 Bft) O-SO 112 1,4 C 7,8 C 0,0 km/h (0 Bft)
19.01.2014 13:20 6,9 C 70 % 1001,2 hPa 0,0 l/m 0,0 km/h (0 Bft) NO 45 1,8 C 8,0 C 0,0 km/h (0 Bft)
19.01.2014 13:25 6,9 C 70 % 1001,0 hPa 0,0 l/m 0,0 km/h (0 Bft) O-SO 112 1,8 C 8,1 C 0,0 km/h (0 Bft)
19.01.2014 13:30 7,4 C 69 % 1001,0 hPa 0,0 l/m 0,2 km/h (0 Bft) NO 45 2,1 C 8,3 C 0,0 km/h (0 Bft)
19.01.2014 13:35 7,9 C 66 % 1001,0 hPa 0,0 l/m 0,5 km/h (0 Bft) O 90 1,9 C 8,4 C 0,0 km/h (0 Bft)
19.01.2014 13:40 8,0 C 64 % 1001,0 hPa 0,0 l/m 0,8 km/h (0 Bft) O 90 1,6 C 8,6 C 0,0 km/h (0 Bft)
19.01.2014 13:45 8,1 C 64 % 1001,6 hPa 0,0 l/m 0,8 km/h (0 Bft) O 90 1,7 C 8,7 C 3,2 km/h (1 Bft)
19.01.2014 13:50 8,2 C 63 % 1001,6 hPa 0,0 l/m 1,8 km/h (1 Bft) NO 45 1,6 C 8,9 C 2,4 km/h (1 Bft)
19.01.2014 13:55 8,2 C 63 % 1001,6 hPa 0,0 l/m 2,1 km/h (1 Bft) NO 45 1,6 C 8,9 C 1,9 km/h (1 Bft)
19.01.2014 14:00 8,1 C 63 % 1001,6 hPa 0,0 l/m 1,6 km/h (1 Bft) N-NO 22 1,5 C 9,0 C 2,1 km/h (1 Bft)
19.01.2014 14:05 8,1 C 63 % 1001,8 hPa 0,0 l/m 1,9 km/h (1 Bft) NO 45 1,5 C 9,1 C 3,7 km/h (1 Bft)
19.01.2014 14:10 7,8 C 63 % 1001,8 hPa 0,0 l/m 1,6 km/h (1 Bft) NO 45 1,2 C 9,1 C 2,6 km/h (1 Bft)
19.01.2014 14:15 7,7 C 64 % 1001,8 hPa 0,0 l/m 1,1 km/h (1 Bft) N-NO 22 1,3 C 9,1 C 0,0 km/h (0 Bft)
19.01.2014 14:18 7,4 C 64 % 1001,8 hPa 0,0 l/m 0,5 km/h (0 Bft) N-NO 22 1,0 C 9,1 C 0,0 km/h (0 Bft)
19.01.2014 14:20 7,4 C 64 % 1001,8 hPa 0,0 l/m 0,5 km/h (0 Bft) N-NO 22 1,0 C 9,1 C 0,0 km/h (0 Bft)
19.01.2014 14:25 7,6 C 64 % 1001,3 hPa 0,0 l/m 0,0 km/h (0 Bft) N-NO 22 1,2 C 9,1 C 0,0 km/h (0 Bft)
19.01.2014 14:30 7,4 C 65 % 1001,3 hPa 0,0 l/m 0,3 km/h (0 Bft) SW 225 1,3 C 9,1 C 3,9 km/h (1 Bft)
19.01.2014 14:35 7,2 C 65 % 1001,3 hPa 0,0 l/m 0,5 km/h (0 Bft) S-SW 202 1,1 C 8,8 C 0,0 km/h (0 Bft)
19.01.2014 14:40 7,1 C 66 % 1001,3 hPa 0,0 l/m 0,5 km/h (0 Bft) W-SW 247 1,2 C 8,6 C 2,3 km/h (1 Bft)
19.01.2014 14:45 7,5 C 66 % 1000,6 hPa 0,0 l/m 0,3 km/h (0 Bft) N-NO 22 1,6 C 8,7 C 2,3 km/h (1 Bft)
19.01.2014 14:50 7,6 C 66 % 1000,6 hPa 0,0 l/m 1,0 km/h (0 Bft) NO 45 1,7 C 8,8 C 0,0 km/h (0 Bft)
19.01.2014 14:55 7,6 C 66 % 1000,6 hPa 0,0 l/m 0,6 km/h (0 Bft) NO 45 1,7 C 8,9 C 0,0 km/h (0 Bft)
19.01.2014 15:00 7,0 C 66 % 1000,6 hPa 0,0 l/m 0,2 km/h (0 Bft) W-NW 292 1,1 C 8,8 C 0,0 km/h (0 Bft)
19.01.2014 15:05 6,9 C 67 % 1000,6 hPa 0,0 l/m 0,2 km/h (0 Bft) W 270 1,2 C 8,6 C 0,0 km/h (0 Bft)
19.01.2014 15:10 6,9 C 67 % 1000,6 hPa 0,0 l/m 0,3 km/h (0 Bft) W 270 1,2 C 8,3 C 2,3 km/h (1 Bft)
19.01.2014 15:15 7,1 C 66 % 1000,6 hPa 0,0 l/m 1,1 km/h (1 Bft) SO 135 1,2 C 8,2 C 3,1 km/h (1 Bft)
19.01.2014 15:20 7,6 C 67 % 1000,6 hPa 0,0 l/m 3,1 km/h (1 Bft) O 90 1,9 C 8,3 C 3,4 km/h (1 Bft)
19.01.2014 15:25 7,9 C 67 % 1001,1 hPa 0,0 l/m 3,4 km/h (1 Bft) NO 45 2,2 C 8,3 C 4,5 km/h (1 Bft)
19.01.2014 15:30 7,4 C 66 % 1001,1 hPa 0,0 l/m 1,8 km/h (1 Bft) NO 45 1,5 C 8,3 C 0,0 km/h (0 Bft)
19.01.2014 15:35 6,7 C 67 % 1001,1 hPa 0,0 l/m 0,6 km/h (0 Bft) N 360 1,0 C 8,1 C 0,0 km/h (0 Bft)
19.01.2014 15:40 6,6 C 69 % 1001,1 hPa 0,0 l/m 0,3 km/h (0 Bft) N 360 1,3 C 7,7 C 0,0 km/h (0 Bft)
19.01.2014 15:45 6,6 C 69 % 1001,1 hPa 0,0 l/m 0,0 km/h (0 Bft) NO 45 1,3 C 7,7 C 0,0 km/h (0 Bft)
19.01.2014 15:50 6,5 C 70 % 1001,1 hPa 0,0 l/m 0,3 km/h (0 Bft) W-SW 247 1,4 C 7,7 C 2,1 km/h (1 Bft)
19.01.2014 15:55 6,1 C 70 % 1001,1 hPa 0,0 l/m 0,3 km/h (0 Bft) S-SW 202 1,0 C 7,5 C 0,0 km/h (0 Bft)
19.01.2014 16:00 6,2 C 70 % 1001,1 hPa 0,0 l/m 0,2 km/h (0 Bft) SO 135 1,1 C 7,1 C 1,8 km/h (1 Bft)
19.01.2014 16:05 6,4 C 70 % 1001,2 hPa 0,0 l/m 0,5 km/h (0 Bft) O-NO 67 1,3 C 7,0 C 2,3 km/h (1 Bft)
19.01.2014 16:10 6,7 C 69 % 1001,2 hPa 0,0 l/m 1,6 km/h (1 Bft) O-NO 67 1,4 C 7,1 C 1,9 km/h (1 Bft)
19.01.2014 16:15 6,7 C 68 % 1001,2 hPa 0,0 l/m 1,3 km/h (1 Bft) NO 45 1,2 C 7,0 C 0,0 km/h (0 Bft)
19.01.2014 16:20 6,7 C 68 % 1001,2 hPa 0,0 l/m 0,2 km/h (0 Bft) NO 45 1,2 C 6,9 C 0,0 km/h (0 Bft)
19.01.2014 16:25 6,7 C 67 % 1002,0 hPa 0,0 l/m 0,2 km/h (0 Bft) NO 45 1,0 C 6,9 C 0,0 km/h (0 Bft)
19.01.2014 16:30 5,9 C 69 % 1002,0 hPa 0,0 l/m 0,5 km/h (0 Bft) W-SW 247 0,7 C 6,8 C 0,0 km/h (0 Bft)
19.01.2014 16:35 5,3 C 69 % 1002,0 hPa 0,0 l/m 0,3 km/h (0 Bft) W-SW 247 0,1 C 6,5 C 0,0 km/h (0 Bft)
19.01.2014 16:40 5,3 C 71 % 1002,0 hPa 0,0 l/m 0,0 km/h (0 Bft) S 180 0,5 C 6,1 C 0,0 km/h (0 Bft)
19.01.2014 16:45 5,4 C 72 % 1001,4 hPa 0,0 l/m 0,0 km/h (0 Bft) NO 45 0,8 C 6,0 C 0,0 km/h (0 Bft)
19.01.2014 16:50 5,2 C 72 % 1001,4 hPa 0,0 l/m 0,2 km/h (0 Bft) NO 45 0,6 C 5,8 C 0,0 km/h (0 Bft)
19.01.2014 16:55 4,7 C 72 % 1001,4 hPa 0,0 l/m 0,3 km/h (0 Bft) S 180 0,1 C 5,6 C 2,6 km/h (1 Bft)
19.01.2014 17:00 4,3 C 73 % 1001,4 hPa 0,0 l/m 0,8 km/h (0 Bft) O-SO 112 -0,1 C 5,3 C 0,0 km/h (0 Bft)
19.01.2014 17:05 3,9 C 74 % 1001,1 hPa 0,0 l/m 0,6 km/h (0 Bft) S-SO 157 -0,3 C 5,0 C 0,0 km/h (0 Bft)
19.01.2014 17:10 3,6 C 74 % 1001,1 hPa 0,0 l/m 0,0 km/h (0 Bft) O-SO 112 -0,6 C 4,4 C 0,0 km/h (0 Bft)
19.01.2014 17:15 3,6 C 75 % 1001,1 hPa 0,0 l/m 0,0 km/h (0 Bft) O-SO 112 -0,4 C 4,1 C 0,0 km/h (0 Bft)
19.01.2014 17:20 3,8 C 77 % 1001,1 hPa 0,0 l/m 0,3 km/h (0 Bft) N-NO 22 0,1 C 4,0 C 1,9 km/h (1 Bft)
19.01.2014 17:25 4,9 C 77 % 1001,1 hPa 0,0 l/m 0,8 km/h (0 Bft) NO 45 1,2 C 4,3 C 0,0 km/h (0 Bft)
19.01.2014 17:30 4,6 C 76 % 1001,1 hPa 0,0 l/m 0,6 km/h (0 Bft) N-NO 22 0,7 C 4,6 C 0,0 km/h (0 Bft)
19.01.2014 17:35 3,8 C 76 % 1001,1 hPa 0,0 l/m 0,2 km/h (0 Bft) S 180 -0,0 C 4,5 C 1,8 km/h (1 Bft)
19.01.2014 17:40 3,1 C 76 % 1001,1 hPa 0,0 l/m 0,2 km/h (0 Bft) S 180 -0,7 C 4,1 C 0,0 km/h (0 Bft)
19.01.2014 17:45 2,9 C 77 % 1001,6 hPa 0,0 l/m 0,2 km/h (0 Bft) SO 135 -0,7 C 3,5 C 0,0 km/h (0 Bft)
19.01.2014 17:50 3,6 C 78 % 1001,6 hPa 0,0 l/m 0,0 km/h (0 Bft) S-SO 157 0,1 C 3,5 C 0,0 km/h (0 Bft)
19.01.2014 17:55 3,4 C 78 % 1001,6 hPa 0,0 l/m 0,0 km/h (0 Bft) S 180 -0,1 C 3,7 C 0,0 km/h (0 Bft)
19.01.2014 18:00 2,5 C 79 % 1001,6 hPa 0,0 l/m 0,0 km/h (0 Bft) N-NW 337 -0,8 C 3,4 C 0,0 km/h (0 Bft)
19.01.2014 18:05 2,6 C 80 % 1001,5 hPa 0,0 l/m 0,3 km/h (0 Bft) NO 45 -0,5 C 2,9 C 3,4 km/h (1 Bft)
19.01.2014 18:10 3,8 C 80 % 1001,5 hPa 0,0 l/m 1,6 km/h (1 Bft) O-SO 112 0,7 C 3,0 C 0,0 km/h (0 Bft)
19.01.2014 18:15 3,4 C 80 % 1001,5 hPa 0,0 l/m 1,6 km/h (1 Bft) O 90 0,3 C 3,1 C 1,6 km/h (1 Bft)
19.01.2014 18:20 2,9 C 79 % 1001,5 hPa 0,0 l/m 0,2 km/h (0 Bft) W-NW 292 -0,4 C 3,2 C 0,0 km/h (0 Bft)
19.01.2014 18:25 2,4 C 79 % 1002,2 hPa 0,0 l/m 0,6 km/h (0 Bft) N-NO 22 -0,9 C 3,0 C 0,0 km/h (0 Bft)
19.01.2014 18:30 2,6 C 81 % 1002,2 hPa 0,0 l/m 0,6 km/h (0 Bft) NO 45 -0,3 C 3,0 C 0,0 km/h (0 Bft)
19.01.2014 18:35 2,4 C 81 % 1002,2 hPa 0,0 l/m 0,2 km/h (0 Bft) NO 45 -0,5 C 2,8 C 0,0 km/h (0 Bft)
19.01.2014 18:40 2,1 C 81 % 1002,2 hPa 0,0 l/m 0,5 km/h (0 Bft) S 180 -0,8 C 2,6 C 1,9 km/h (1 Bft)
19.01.2014 18:45 1,7 C 81 % 1002,0 hPa 0,0 l/m 0,5 km/h (0 Bft) S-SO 157 -1,2 C 2,3 C 0,0 km/h (0 Bft)
19.01.2014 18:50 1,5 C 82 % 1002,0 hPa 0,0 l/m 0,2 km/h (0 Bft) S 180 -1,2 C 1,8 C 0,0 km/h (0 Bft)
19.01.2014 18:55 1,2 C 82 % 1002,0 hPa 0,0 l/m 0,0 km/h (0 Bft) W 270 -1,5 C 1,7 C 0,0 km/h (0 Bft)
19.01.2014 19:00 1,4 C 83 % 1002,0 hPa 0,0 l/m 0,5 km/h (0 Bft) O-SO 112 -1,2 C 1,3 C 0,0 km/h (0 Bft)
19.01.2014 19:05 1,1 C 83 % 1002,3 hPa 0,0 l/m 0,5 km/h (0 Bft) O-SO 112 -1,5 C 1,1 C 2,6 km/h (1 Bft)
19.01.2014 19:10 0,8 C 84 % 1002,3 hPa 0,0 l/m 0,8 km/h (0 Bft) S 180 -1,6 C 1,0 C 0,0 km/h (0 Bft)
19.01.2014 19:15 0,5 C 84 % 1002,3 hPa 0,0 l/m 0,8 km/h (0 Bft) S 180 -1,9 C 0,7 C 0,0 km/h (0 Bft)
19.01.2014 19:20 0,3 C 84 % 1002,3 hPa 0,0 l/m 1,0 km/h (0 Bft) S-SO 157 -2,1 C 0,2 C 4,0 km/h (1 Bft)
19.01.2014 19:25 0,7 C 86 % 1002,3 hPa 0,0 l/m 1,4 km/h (1 Bft) S-SO 157 -1,4 C 0,3 C 2,1 km/h (1 Bft)
19.01.2014 19:30 1,1 C 87 % 1002,3 hPa 0,0 l/m 2,1 km/h (1 Bft) O 90 -0,8 C 0,5 C 0,0 km/h (0 Bft)
19.01.2014 19:35 0,7 C 87 % 1002,3 hPa 0,0 l/m 1,4 km/h (1 Bft) O 90 -1,2 C 0,5 C 0,0 km/h (0 Bft)
19.01.2014 19:40 0,0 C 86 % 1002,3 hPa 0,0 l/m 0,0 km/h (0 Bft) O 90 -2,1 C 0,1 C 0,0 km/h (0 Bft)
19.01.2014 19:45 -0,1 C 86 % 1006,4 hPa 0,0 l/m 0,0 km/h (0 Bft) O 90 -2,2 C -0,1 C 0,0 km/h (0 Bft)
19.01.2014 19:50 -0,3 C 86 % 1006,4 hPa 0,0 l/m 0,0 km/h (0 Bft) O-NO 67 -2,3 C -0,2 C 0,0 km/h (0 Bft)
19.01.2014 19:55 -0,3 C 86 % 1006,4 hPa 0,0 l/m 0,0 km/h (0 Bft) O-NO 67 -2,3 C -0,3 C 0,0 km/h (0 Bft)
19.01.2014 20:00 -0,1 C 87 % 1006,4 hPa 0,0 l/m 0,0 km/h (0 Bft) O 90 -2,0 C -0,3 C 0,0 km/h (0 Bft)
19.01.2014 20:05 0,4 C 87 % 1013,3 hPa 0,0 l/m 0,2 km/h (0 Bft) O 90 -1,5 C -0,3 C 0,0 km/h (0 Bft)
19.01.2014 20:10 0,5 C 88 % 1013,3 hPa 0,0 l/m 0,2 km/h (0 Bft) O 90 -1,3 C -0,1 C 0,0 km/h (0 Bft)
19.01.2014 20:15 -0,1 C 88 % 1013,3 hPa 0,0 l/m 0,6 km/h (0 Bft) W-NW 292 -1,8 C -0,2 C 0,0 km/h (0 Bft)
19.01.2014 20:18 -0,3 C 88 % 1013,3 hPa 0,0 l/m 0,5 km/h (0 Bft) N-NO 22 -2,0 C -0,6 C 0,0 km/h (0 Bft)
19.01.2014 20:20 -0,3 C 88 % 1013,3 hPa 0,0 l/m 0,5 km/h (0 Bft) N-NO 22 -2,0 C -0,6 C 0,0 km/h (0 Bft)
19.01.2014 20:25 0,3 C 89 % 1014,8 hPa 0,0 l/m 0,6 km/h (0 Bft) O-SO 112 -1,3 C -0,5 C 0,0 km/h (0 Bft)
19.01.2014 20:30 -0,1 C 89 % 1014,8 hPa 0,0 l/m 0,8 km/h (0 Bft) S-SO 157 -1,7 C -0,3 C 1,6 km/h (1 Bft)
19.01.2014 20:35 -0,4 C 89 % 1014,8 hPa 0,0 l/m 0,2 km/h (0 Bft) S 180 -2,0 C -0,4 C 0,0 km/h (0 Bft)
19.01.2014 20:40 -0,9 C 89 % 1014,8 hPa 0,0 l/m 0,0 km/h (0 Bft) O-SO 112 -2,5 C -0,8 C 0,0 km/h (0 Bft)
19.01.2014 20:45 -0,5 C 89 % 1015,1 hPa 0,0 l/m 0,0 km/h (0 Bft) N-NO 22 -2,1 C -1,0 C 0,0 km/h (0 Bft)
19.01.2014 20:50 -0,5 C 90 % 1015,1 hPa 0,0 l/m 0,0 km/h (0 Bft) N-NO 22 -1,9 C -0,8 C 0,0 km/h (0 Bft)
19.01.2014 20:55 -0,2 C 90 % 1015,1 hPa 0,0 l/m 0,0 km/h (0 Bft) O-NO 67 -1,6 C -0,7 C 0,0 km/h (0 Bft)
19.01.2014 21:00 0,3 C 91 % 1015,1 hPa 0,0 l/m 1,3 km/h (1 Bft) O-SO 112 -1,0 C -0,4 C 1,9 km/h (1 Bft)
19.01.2014 21:05 0,3 C 91 % 1016,6 hPa 0,0 l/m 1,4 km/h (1 Bft) O-SO 112 -1,0 C -0,1 C 0,0 km/h (0 Bft)
19.01.2014 21:10 -0,4 C 91 % 1016,6 hPa 0,0 l/m 0,5 km/h (0 Bft) NO 45 -1,7 C -0,2 C 0,0 km/h (0 Bft)
19.01.2014 21:15 -0,5 C 91 % 1016,6 hPa 0,0 l/m 0,0 km/h (0 Bft) NO 45 -1,8 C -0,5 C 0,0 km/h (0 Bft)
19.01.2014 21:20 -0,5 C 91 % 1016,6 hPa 0,0 l/m 0,0 km/h (0 Bft) O-SO 112 -1,8 C -0,7 C 0,0 km/h (0 Bft)
19.01.2014 21:25 0,2 C 91 % 1016,2 hPa 0,0 l/m 1,0 km/h (0 Bft) S-SO 157 -1,1 C -0,5 C 3,1 km/h (1 Bft)
19.01.2014 21:30 -0,2 C 91 % 1016,2 hPa 0,0 l/m 1,6 km/h (1 Bft) O-SO 112 -1,5 C -0,2 C 0,0 km/h (0 Bft)
19.01.2014 21:35 -0,6 C 91 % 1016,2 hPa 0,0 l/m 1,0 km/h (0 Bft) S 180 -1,9 C -0,3 C 0,0 km/h (0 Bft)
19.01.2014 21:40 -1,3 C 91 % 1016,2 hPa 0,0 l/m 0,2 km/h (0 Bft) S 180 -2,6 C -0,9 C 0,0 km/h (0 Bft)
19.01.2014 21:45 -1,7 C 90 % 1016,8 hPa 0,0 l/m 0,3 km/h (0 Bft) N-NO 22 -3,1 C -1,2 C 1,6 km/h (1 Bft)
19.01.2014 21:50 -1,6 C 90 % 1016,8 hPa 0,0 l/m 1,0 km/h (0 Bft) N-NO 22 -3,0 C -1,5 C 0,0 km/h (0 Bft)
19.01.2014 21:55 -1,5 C 90 % 1016,8 hPa 0,0 l/m 0,8 km/h (0 Bft) NO 45 -2,9 C -1,4 C 0,0 km/h (0 Bft)
19.01.2014 22:00 -0,2 C 91 % 1016,8 hPa 0,0 l/m 1,0 km/h (0 Bft) NO 45 -1,5 C -1,0 C 2,7 km/h (1 Bft)
19.01.2014 22:05 -0,5 C 91 % 1019,7 hPa 0,0 l/m 1,1 km/h (1 Bft) N-NO 22 -1,8 C -0,9 C 0,0 km/h (0 Bft)
19.01.2014 22:10 -1,5 C 91 % 1019,7 hPa 0,0 l/m 0,3 km/h (0 Bft) SO 135 -2,8 C -0,9 C 0,0 km/h (0 Bft)
19.01.2014 22:15 -1,6 C 91 % 1019,7 hPa 0,0 l/m 0,0 km/h (0 Bft) O-SO 112 -2,9 C -1,4 C 0,0 km/h (0 Bft)
19.01.2014 22:20 -0,5 C 92 % 1019,7 hPa 0,0 l/m 0,3 km/h (0 Bft) SO 135 -1,6 C -1,4 C 0,0 km/h (0 Bft)
19.01.2014 22:25 -0,9 C 92 % 1017,6 hPa 0,0 l/m 0,6 km/h (0 Bft) SO 135 -2,0 C -1,2 C 0,0 km/h (0 Bft)
19.01.2014 22:30 -1,4 C 91 % 1017,6 hPa 0,0 l/m 0,5 km/h (0 Bft) S-SW 202 -2,7 C -1,3 C 0,0 km/h (0 Bft)
19.01.2014 22:35 -1,6 C 91 % 1017,6 hPa 0,0 l/m 0,3 km/h (0 Bft) S 180 -2,9 C -1,5 C 0,0 km/h (0 Bft)
19.01.2014 22:40 -1,5 C 91 % 1017,6 hPa 0,0 l/m 1,0 km/h (0 Bft) S 180 -2,8 C -1,6 C 0,0 km/h (0 Bft)
19.01.2014 22:45 -1,4 C 92 % 1017,6 hPa 0,0 l/m 1,3 km/h (1 Bft) N 360 -2,5 C -1,7 C 0,0 km/h (0 Bft)
19.01.2014 22:50 -1,6 C 92 % 1017,6 hPa 0,0 l/m 1,0 km/h (0 Bft) W 270 -2,7 C -1,8 C 1,9 km/h (1 Bft)
19.01.2014 22:55 -2,0 C 92 % 1017,6 hPa 0,0 l/m 0,5 km/h (0 Bft) W 270 -3,1 C -1,9 C 0,0 km/h (0 Bft)
19.01.2014 23:00 -1,8 C 92 % 1017,6 hPa 0,0 l/m 1,1 km/h (1 Bft) N 360 -2,9 C -2,1 C 2,7 km/h (1 Bft)
19.01.2014 23:05 -1,7 C 92 % 1017,6 hPa 0,0 l/m 1,0 km/h (0 Bft) N 360 -2,8 C -2,0 C 0,0 km/h (0 Bft)
19.01.2014 23:10 -1,9 C 92 % 1017,6 hPa 0,0 l/m 0,3 km/h (0 Bft) N-NO 22 -3,0 C -2,0 C 0,0 km/h (0 Bft)
19.01.2014 23:15 -1,8 C 92 % 1017,6 hPa 0,0 l/m 0,0 km/h (0 Bft) N-NO 22 -2,9 C -2,1 C 0,0 km/h (0 Bft)
19.01.2014 23:20 -2,0 C 92 % 1017,6 hPa 0,0 l/m 0,6 km/h (0 Bft) S-SW 202 -3,1 C -2,1 C 1,8 km/h (1 Bft)
19.01.2014 23:25 -2,1 C 92 % 1017,6 hPa 0,0 l/m 0,8 km/h (0 Bft) S-SW 202 -3,2 C -2,2 C 0,0 km/h (0 Bft)
19.01.2014 23:30 -1,9 C 92 % 1017,6 hPa 0,0 l/m 0,5 km/h (0 Bft) W-SW 247 -3,0 C -2,3 C 0,0 km/h (0 Bft)
19.01.2014 23:35 -2,1 C 92 % 1017,6 hPa 0,0 l/m 0,2 km/h (0 Bft) S 180 -3,2 C -2,3 C 1,9 km/h (1 Bft)
19.01.2014 23:40 -2,1 C 92 % 1017,6 hPa 0,0 l/m 0,8 km/h (0 Bft) S 180 -3,2 C -2,3 C 3,5 km/h (1 Bft)
19.01.2014 23:45 -2,0 C 92 % 1017,6 hPa 0,0 l/m 1,1 km/h (1 Bft) O 90 -3,1 C -2,3 C 3,4 km/h (1 Bft)
19.01.2014 23:50 -2,0 C 92 % 1017,6 hPa 0,0 l/m 1,1 km/h (1 Bft) S 180 -3,1 C -2,2 C 1,8 km/h (1 Bft)
19.01.2014 23:55 -2,0 C 92 % 1017,6 hPa 0,0 l/m 1,3 km/h (1 Bft) S 180 -3,1 C -2,2 C 2,9 km/h (1 Bft)
_ Min-Zeit 23:40 08:35 07:00 - 23:15 - - 23:40 23:45 23:30
Minimum _ -2,1 C 60 % 1000,3 hPa - 0,0 km/h (0 Bft) - - -3,2 C -2,3 C 0,0 km/h (0 Bft)
_ Max-Zeit 13:55 02:00 22:20 23:55 08:25 - - 02:30 14:30 03:00
Maximum _ 8,2 C 97 % 1019,7 hPa 0,0 l/m 6,4 km/h
NO (2 Bft)
- - 3,5 C 9,1 C 8,9 km/h
W-SW (2 Bft)
Durchschnitt _ 3,3 C 79 % 1004,0 hPa #0,0 l/m 1,3 km/h (1 Bft) NO - -0,1 C 3,7 C 1,6 km/h (1 Bft)